createdAt,value
2023-05-03T00:01:08.913Z,100969.78
2023-05-03T00:03:37.866Z,100966.91
2023-05-03T00:06:16.228Z,100969.78
2023-05-03T00:08:45.879Z,100966.59
2023-05-03T00:11:14.111Z,100981.25
2023-05-03T00:13:42.713Z,100984.88
2023-05-03T00:16:10.833Z,100974.41
2023-05-03T00:18:39.044Z,100976.91
2023-05-03T00:21:07.614Z,100977.75
2023-05-03T00:23:35.938Z,100988.38
2023-05-03T00:26:05.649Z,100979.72
2023-05-03T00:28:33.942Z,100985.53
2023-05-03T00:31:09.660Z,100985.53
2023-05-03T00:33:37.981Z,100993.66
2023-05-03T00:36:10.250Z,100989.50
2023-05-03T00:38:38.810Z,100993.97
2023-05-03T00:41:08.821Z,100995.66
2023-05-03T00:43:37.986Z,100988.81
2023-05-03T00:46:15.816Z,100984.84
2023-05-03T00:48:45.935Z,100990.00
2023-05-03T00:51:15.741Z,100984.00
2023-05-03T00:53:46.810Z,100984.84
2023-05-03T00:56:21.072Z,100986.81
2023-05-03T00:58:50.015Z,100995.78
2023-05-03T01:01:18.640Z,100997.78
2023-05-03T01:03:47.318Z,100993.13
2023-05-03T01:06:25.902Z,100992.28
2023-05-03T01:09:05.789Z,100993.44
2023-05-03T01:11:46.793Z,101001.03
2023-05-03T01:14:24.277Z,101004.38
2023-05-03T01:16:58.215Z,101006.50
2023-05-03T01:19:32.326Z,101008.69
2023-05-03T01:22:17.221Z,101003.31
2023-05-03T01:24:48.914Z,101016.44
2023-05-03T01:27:19.572Z,101014.25
2023-05-03T01:29:48.017Z,101015.25
2023-05-03T01:32:24.725Z,101013.59
2023-05-03T01:34:58.838Z,101019.06
2023-05-03T01:37:27.528Z,101020.22
2023-05-03T01:40:02.047Z,101014.22
2023-05-03T01:42:36.539Z,101018.69
2023-05-03T01:45:06.140Z,101017.34
2023-05-03T01:47:34.566Z,101016.16
2023-05-03T01:50:03.126Z,101018.13
2023-05-03T01:52:41.081Z,101014.94
2023-05-03T01:55:10.122Z,101014.75
2023-05-03T01:57:39.869Z,101021.22
2023-05-03T02:00:09.950Z,101021.78
2023-05-03T02:02:38.301Z,101021.97
2023-05-03T02:05:07.568Z,101012.41
2023-05-03T02:07:43.700Z,101024.22
2023-05-03T02:10:15.179Z,101020.03
2023-05-03T02:12:45.946Z,101026.78
2023-05-03T02:15:14.596Z,101020.09
2023-05-03T02:17:45.892Z,101028.25
2023-05-03T02:20:14.738Z,101019.38
2023-05-03T02:22:43.465Z,101033.31
2023-05-03T02:25:11.763Z,101029.16
2023-05-03T02:27:40.711Z,101031.44
2023-05-03T02:30:11.169Z,101032.72
2023-05-03T02:32:39.445Z,101031.22
2023-05-03T02:35:08.261Z,101033.19
2023-05-03T02:37:36.530Z,101037.81
2023-05-03T02:40:07.522Z,101040.09
2023-05-03T02:42:35.815Z,101031.44
2023-05-03T02:45:04.758Z,101028.56
2023-05-03T02:47:34.592Z,101033.03
2023-05-03T02:50:03.313Z,101031.13
2023-05-03T02:52:32.271Z,101035.59
2023-05-03T02:55:00.460Z,101025.78
2023-05-03T02:57:28.770Z,101042.66
2023-05-03T02:59:57.271Z,101038.50
2023-05-03T03:02:26.407Z,101037.94
2023-05-03T03:04:57.514Z,101042.56
2023-05-03T03:07:25.933Z,101043.31
2023-05-03T03:09:56.251Z,101048.63
2023-05-03T03:12:25.534Z,101046.94
2023-05-03T03:14:54.210Z,101050.56
2023-05-03T03:17:26.292Z,101053.91
2023-05-03T03:19:56.334Z,101055.75
2023-05-03T03:22:24.519Z,101067.72
2023-05-03T03:24:53.725Z,101068.94
2023-05-03T03:27:24.141Z,101078.66
2023-05-03T03:29:52.363Z,101075.69
2023-05-03T03:32:20.537Z,101089.06
2023-05-03T03:34:49.527Z,101075.78
2023-05-03T03:37:19.494Z,101084.09
2023-05-03T03:39:47.669Z,101085.09
2023-05-03T03:42:18.452Z,101087.16
2023-05-03T03:44:47.423Z,101094.81
2023-05-03T03:47:16.129Z,101095.03
2023-05-03T03:49:44.439Z,101108.31
2023-05-03T03:52:12.687Z,101097.63
2023-05-03T03:54:42.464Z,101101.66
2023-05-03T03:57:10.934Z,101111.88
2023-05-03T03:59:39.129Z,101112.56
2023-05-03T04:02:07.384Z,101112.84
2023-05-03T04:04:36.374Z,101113.84
2023-05-03T04:07:04.789Z,101112.41
2023-05-03T04:09:33.203Z,101116.13
2023-05-03T04:12:03.477Z,101108.16
2023-05-03T04:14:31.670Z,101115.69
2023-05-03T04:16:59.914Z,101121.66
2023-05-03T04:19:28.254Z,101127.97
2023-05-03T04:21:56.489Z,101124.91
2023-05-03T04:24:24.929Z,101128.69
2023-05-03T04:26:53.663Z,101131.50
2023-05-03T04:29:23.577Z,101118.00
2023-05-03T04:31:52.265Z,101127.56
2023-05-03T04:34:20.781Z,101123.50
2023-05-03T04:36:49.207Z,101137.50
2023-05-03T04:39:17.858Z,101135.84
2023-05-03T04:41:46.497Z,101137.06
2023-05-03T04:44:14.863Z,101133.13
2023-05-03T04:46:48.787Z,101141.56
2023-05-03T04:49:18.601Z,101142.28
2023-05-03T04:51:46.922Z,101139.19
2023-05-03T04:54:15.724Z,101150.00
2023-05-03T04:56:43.946Z,101145.09
2023-05-03T04:59:13.159Z,101144.28
2023-05-03T05:01:41.558Z,101140.34
2023-05-03T05:04:11.225Z,101151.69
2023-05-03T05:06:39.868Z,101152.75
2023-05-03T05:09:09.024Z,101151.63
2023-05-03T05:11:38.016Z,101162.47
2023-05-03T05:14:06.392Z,101163.22
2023-05-03T05:16:36.169Z,101157.09
2023-05-03T05:19:04.596Z,101143.47
2023-05-03T05:21:34.364Z,101161.00
2023-05-03T05:24:02.817Z,101157.03
2023-05-03T05:26:31.165Z,101171.88
2023-05-03T05:28:59.532Z,101174.38
2023-05-03T05:31:27.798Z,101172.44
2023-05-03T05:33:56.033Z,101172.13
2023-05-03T05:36:24.213Z,101161.69
2023-05-03T05:38:54.021Z,101173.69
2023-05-03T05:41:23.984Z,101177.50
2023-05-03T05:43:52.226Z,101172.38
2023-05-03T05:46:21.683Z,101179.84
2023-05-03T05:48:51.405Z,101180.69
2023-05-03T05:51:20.408Z,101187.69
2023-05-03T05:53:48.766Z,101193.19
2023-05-03T05:56:18.800Z,101187.88
2023-05-03T05:58:47.193Z,101198.22
2023-05-03T06:01:15.687Z,101200.34
2023-05-03T06:03:44.057Z,101204.38
2023-05-03T06:06:12.488Z,101197.88
2023-05-03T06:08:41.832Z,101206.84
2023-05-03T06:11:14.212Z,101211.72
2023-05-03T06:13:44.088Z,101209.69
2023-05-03T06:16:12.996Z,101205.88
2023-05-03T06:18:41.351Z,101210.22
2023-05-03T06:21:10.328Z,101214.38
2023-05-03T06:23:39.860Z,101208.50
2023-05-03T06:26:08.574Z,101215.34
2023-05-03T06:28:37.684Z,101217.81
2023-05-03T06:31:14.892Z,101227.31
2023-05-03T06:33:43.363Z,101224.81
2023-05-03T06:36:13.403Z,101222.59
2023-05-03T06:38:42.188Z,101230.56
2023-05-03T06:41:10.569Z,101228.69
2023-05-03T06:43:38.961Z,101231.16
2023-05-03T06:46:08.028Z,101231.94
2023-05-03T06:48:37.922Z,101229.44
2023-05-03T06:51:06.697Z,101242.91
2023-05-03T06:53:34.997Z,101242.16
2023-05-03T06:56:03.931Z,101249.00
2023-05-03T06:58:32.474Z,101257.97
2023-05-03T07:01:00.900Z,101248.44
2023-05-03T07:03:29.447Z,101258.22
2023-05-03T07:06:00.979Z,101254.78
2023-05-03T07:08:31.784Z,101249.84
2023-05-03T07:11:00.221Z,101254.50
2023-05-03T07:13:28.624Z,101253.78
2023-05-03T07:15:57.003Z,101263.16
2023-05-03T07:18:26.424Z,101262.25
2023-05-03T07:20:54.792Z,101272.81
2023-05-03T07:23:25.543Z,101270.81
2023-05-03T07:25:55.181Z,101278.94
2023-05-03T07:28:23.564Z,101274.91
2023-05-03T07:30:52.755Z,101269.38
2023-05-03T07:33:21.389Z,101264.97
2023-05-03T07:35:52.135Z,101284.63
2023-05-03T07:38:20.479Z,101282.25
2023-05-03T07:40:50.489Z,101274.13
2023-05-03T07:43:23.758Z,101284.31
2023-05-03T07:45:52.404Z,101273.88
2023-05-03T07:48:36.654Z,101285.53
2023-05-03T07:51:05.947Z,101281.84
2023-05-03T07:53:35.704Z,101285.16
2023-05-03T07:56:05.846Z,101283.59
2023-05-03T07:58:39.873Z,101288.84
2023-05-03T08:01:09.180Z,101276.69
2023-05-03T08:03:37.801Z,101286.00
2023-05-03T08:06:07.119Z,101282.78
2023-05-03T08:08:36.724Z,101279.53
2023-05-03T08:11:06.599Z,101289.88
2023-05-03T08:13:35.206Z,101287.38
2023-05-03T08:16:03.723Z,101297.38
2023-05-03T08:18:32.190Z,101290.50
2023-05-03T08:21:00.772Z,101293.28
2023-05-03T08:23:32.769Z,101298.06
2023-05-03T08:26:04.413Z,101279.25
2023-05-03T08:28:37.097Z,101274.03
2023-05-03T08:31:05.884Z,101281.31
2023-05-03T08:33:34.458Z,101286.75
2023-05-03T08:36:03.231Z,101273.91
2023-05-03T08:38:35.165Z,101281.22
2023-05-03T08:41:15.673Z,101291.16
2023-05-03T08:43:55.018Z,101288.66
2023-05-03T08:46:25.796Z,101288.16
2023-05-03T08:48:54.857Z,101292.31
2023-05-03T08:51:32.336Z,101287.88
2023-05-03T08:54:01.274Z,101288.50
2023-05-03T08:56:32.207Z,101284.41
2023-05-03T08:59:07.884Z,101295.06
2023-05-03T09:01:37.863Z,101291.09
2023-05-03T09:04:09.319Z,101289.97
2023-05-03T09:06:38.567Z,101296.66
2023-05-03T09:09:15.469Z,101295.00
2023-05-03T09:11:43.702Z,101303.63
2023-05-03T09:14:15.139Z,101298.72
2023-05-03T09:16:46.352Z,101304.72
2023-05-03T09:19:15.892Z,101302.72
2023-05-03T09:24:53.798Z,101313.84
2023-05-03T09:27:22.840Z,101303.53
2023-05-03T09:29:54.850Z,101302.28
2023-05-03T09:32:24.650Z,101306.63
2023-05-03T09:34:55.743Z,101309.13
2023-05-03T09:37:38.803Z,101300.13
2023-05-03T09:40:11.753Z,101312.38
2023-05-03T09:42:43.860Z,101317.56
2023-05-03T09:45:15.525Z,101313.03
2023-05-03T09:47:54.230Z,101313.88
2023-05-03T09:50:23.217Z,101315.78
2023-05-03T09:52:53.158Z,101309.03
2023-05-03T09:55:22.368Z,101319.19
2023-05-03T09:57:54.354Z,101323.94
2023-05-03T10:00:25.537Z,101325.22
2023-05-03T10:03:00.674Z,101319.25
2023-05-03T10:05:34.125Z,101328.66
2023-05-03T10:08:05.466Z,101330.81
2023-05-03T10:10:36.381Z,101325.88
2023-05-03T10:13:05.718Z,101341.00
2023-05-03T10:15:38.870Z,101335.16
2023-05-03T10:18:09.969Z,101343.22
2023-05-03T10:20:43.654Z,101326.53
2023-05-03T10:23:13.574Z,101329.06
2023-05-03T10:26:05.511Z,101333.84
2023-05-03T10:28:36.842Z,101334.25
2023-05-03T10:31:07.033Z,101330.34
2023-05-03T10:33:36.558Z,101334.56
2023-05-03T10:36:10.926Z,101339.13
2023-05-03T10:38:40.999Z,101341.81
2023-05-03T10:41:09.426Z,101341.56
2023-05-03T10:43:46.304Z,101327.66
2023-05-03T10:46:36.684Z,101334.94
2023-05-03T10:49:21.324Z,101339.50
2023-05-03T10:51:49.951Z,101340.16
2023-05-03T10:54:19.697Z,101340.00
2023-05-03T10:57:01.994Z,101333.78
2023-05-03T10:59:49.042Z,101344.81
2023-05-03T11:02:28.328Z,101333.59
2023-05-03T11:05:02.421Z,101344.31
2023-05-03T11:07:32.212Z,101336.22
2023-05-03T11:10:01.034Z,101334.59
2023-05-03T11:12:29.663Z,101336.69
2023-05-03T11:14:57.941Z,101344.19
2023-05-03T11:17:29.414Z,101354.56
2023-05-03T11:19:59.026Z,101346.44
2023-05-03T11:22:27.497Z,101354.50
2023-05-03T11:24:58.542Z,101345.41
2023-05-03T11:27:27.075Z,101355.34
2023-05-03T11:29:58.645Z,101353.13
2023-05-03T11:32:30.547Z,101350.97
2023-05-03T11:34:59.391Z,101354.69
2023-05-03T11:37:28.293Z,101352.00
2023-05-03T11:39:58.100Z,101362.63
2023-05-03T11:42:26.860Z,101351.91
2023-05-03T11:44:55.461Z,101360.00
2023-05-03T11:47:24.100Z,101355.44
2023-05-03T11:49:58.040Z,101363.91
2023-05-03T11:52:28.715Z,101351.28
2023-05-03T11:54:58.982Z,101365.38
2023-05-03T11:57:27.632Z,101364.97
2023-05-03T11:59:56.510Z,101379.91
2023-05-03T12:02:25.320Z,101374.53
2023-05-03T12:04:54.834Z,101374.53
2023-05-03T12:07:27.191Z,101368.94
2023-05-03T12:10:10.028Z,101373.72
2023-05-03T12:13:09.335Z,101369.97
2023-05-03T12:15:43.733Z,101371.03
2023-05-03T12:18:15.126Z,101366.88
2023-05-03T12:21:29.298Z,101376.59
2023-05-03T12:23:34.623Z,101368.31
2023-05-03T12:26:05.149Z,101374.13
2023-05-03T12:28:34.206Z,101373.94
2023-05-03T12:31:05.002Z,101380.78
2023-05-03T12:33:38.175Z,101363.19
2023-05-03T12:36:09.806Z,101383.31
2023-05-03T12:38:43.530Z,101372.09
2023-05-03T12:41:15.947Z,101383.03
2023-05-03T12:44:09.811Z,101370.81
2023-05-03T12:46:39.586Z,101372.72
2023-05-03T12:49:09.035Z,101367.53
2023-05-03T12:51:42.185Z,101371.25
2023-05-03T12:54:12.865Z,101376.94
2023-05-03T12:56:41.814Z,101368.03
2023-05-03T13:06:45.176Z,101370.75
2023-05-03T13:09:20.886Z,101370.94
2023-05-03T13:11:52.839Z,101359.13
2023-05-03T13:14:22.077Z,101361.84
2023-05-03T13:16:51.738Z,101366.84
2023-05-03T13:19:28.180Z,101366.84
2023-05-03T13:21:56.354Z,101364.13
2023-05-03T13:24:26.284Z,101363.31
2023-05-03T13:26:56.744Z,101377.16
2023-05-03T13:29:29.300Z,101363.06
2023-05-03T13:31:57.700Z,101355.38
2023-05-03T13:34:26.439Z,101358.09
2023-05-03T13:36:54.718Z,101358.75
2023-05-03T13:39:28.044Z,101353.94
2023-05-03T13:41:57.782Z,101360.41
2023-05-03T13:44:26.269Z,101360.19
2023-05-03T13:46:55.834Z,101350.25
2023-05-03T13:49:27.639Z,101354.41
2023-05-03T13:51:56.335Z,101351.91
2023-05-03T13:54:30.066Z,101351.91
2023-05-03T13:56:59.603Z,101346.09
2023-05-03T13:59:27.857Z,101358.78
2023-05-03T14:01:56.178Z,101361.84
2023-05-03T14:04:25.673Z,101352.94
2023-05-03T14:06:53.967Z,101357.94
2023-05-03T14:09:23.001Z,101353.78
2023-05-03T14:11:53.722Z,101354.19
2023-05-03T14:14:23.423Z,101349.22
2023-05-03T14:16:51.650Z,101352.94
2023-05-03T14:19:21.881Z,101359.34
2023-05-03T14:21:51.578Z,101357.72
2023-05-03T14:24:20.017Z,101362.47
2023-05-03T14:26:48.597Z,101364.97
2023-05-03T14:29:19.435Z,101362.66
2023-05-03T14:31:47.753Z,101354.34
2023-05-03T14:34:17.217Z,101366.16
2023-05-03T14:36:45.420Z,101368.84
2023-05-03T14:39:16.772Z,101360.59
2023-05-03T14:41:48.137Z,101361.84
2023-05-03T14:44:18.021Z,101364.75
2023-05-03T14:46:47.218Z,101363.09
2023-05-03T14:49:17.748Z,101364.13
2023-05-03T14:51:46.437Z,101378.66
2023-05-03T14:54:15.019Z,101369.72
2023-05-03T14:56:43.406Z,101374.28
2023-05-03T14:59:14.382Z,101371.59
2023-05-03T15:01:44.296Z,101375.13
2023-05-03T15:04:12.704Z,101376.16
2023-05-03T15:06:41.258Z,101375.75
2023-05-03T15:09:11.440Z,101377.41
2023-05-03T15:11:39.829Z,101365.19
2023-05-03T15:14:09.278Z,101376.16
2023-05-03T15:16:37.596Z,101364.38
2023-05-03T15:19:07.651Z,101364.97
2023-05-03T15:21:46.472Z,101378.25
2023-05-03T15:24:15.431Z,101370.16
2023-05-03T15:26:43.853Z,101379.31
2023-05-03T15:29:13.666Z,101379.06
2023-05-03T15:31:42.141Z,101371.81
2023-05-03T15:34:12.700Z,101377.25
2023-05-03T15:36:41.091Z,101376.00
2023-05-03T15:39:09.970Z,101375.28
2023-05-03T15:41:39.510Z,101370.72
2023-05-03T15:44:09.894Z,101383.53
2023-05-03T15:46:40.181Z,101383.38
2023-05-03T15:49:13.192Z,101385.59
2023-05-03T15:51:43.088Z,101384.59
2023-05-03T15:54:11.474Z,101386.16
2023-05-03T15:56:40.224Z,101391.41
2023-05-03T15:59:08.868Z,101393.50
2023-05-03T16:01:37.539Z,101398.03
2023-05-03T16:04:07.797Z,101395.00
2023-05-03T16:06:39.822Z,101407.28
2023-05-03T16:09:08.240Z,101394.78
2023-05-03T16:11:37.708Z,101399.97
2023-05-03T16:14:09.391Z,101406.53
2023-05-03T16:16:39.182Z,101394.88
2023-05-03T16:19:08.992Z,101403.72
2023-05-03T16:21:38.762Z,101411.91
2023-05-03T16:24:07.551Z,101413.41
2023-05-03T16:26:37.006Z,101415.97
2023-05-03T16:29:05.800Z,101406.53
2023-05-03T16:31:33.999Z,101408.06
2023-05-03T16:34:03.175Z,101404.75
2023-05-03T16:36:32.950Z,101408.31
2023-05-03T16:39:04.968Z,101415.97
2023-05-03T16:41:36.468Z,101427.00
2023-05-03T16:44:05.729Z,101423.75
2023-05-03T16:46:35.147Z,101425.59
2023-05-03T16:49:03.579Z,101416.13
2023-05-03T16:51:31.797Z,101417.44
2023-05-03T16:54:03.710Z,101419.94
2023-05-03T16:56:34.138Z,101424.00
2023-05-03T16:59:03.809Z,101420.13
2023-05-03T17:01:31.977Z,101423.22
2023-05-03T17:04:01.670Z,101415.69
2023-05-03T17:06:30.219Z,101418.91
2023-05-03T17:08:58.408Z,101414.75
2023-05-03T17:11:26.627Z,101414.59
2023-05-03T17:13:56.250Z,101423.03
2023-05-03T17:16:24.475Z,101421.91
2023-05-03T17:18:52.959Z,101427.28
2023-05-03T17:21:21.315Z,101425.63
2023-05-03T17:23:50.519Z,101427.72
2023-05-03T17:26:21.378Z,101428.41
2023-05-03T17:28:49.792Z,101421.47
2023-05-03T17:31:20.020Z,101423.03
2023-05-03T17:33:50.499Z,101431.31
2023-05-03T17:36:20.161Z,101426.59
2023-05-03T17:38:50.600Z,101423.25
2023-05-03T17:41:20.241Z,101422.81
2023-05-03T17:43:49.689Z,101426.16
2023-05-03T17:46:21.211Z,101446.34
2023-05-03T17:48:50.094Z,101440.53
2023-05-03T17:51:18.780Z,101438.66
2023-05-03T17:53:47.473Z,101439.56
2023-05-03T17:56:16.126Z,101451.47
2023-05-03T17:58:45.382Z,101452.25
2023-05-03T18:01:13.827Z,101447.06
2023-05-03T18:03:44.409Z,101445.16
2023-05-03T18:06:14.394Z,101451.56
2023-05-03T18:08:47.382Z,101453.00
2023-05-03T18:11:16.177Z,101453.78
2023-05-03T18:13:45.403Z,101463.06
2023-05-03T18:16:13.762Z,101457.78
2023-05-03T18:18:43.508Z,101464.00
2023-05-03T18:21:11.895Z,101453.44
2023-05-03T18:23:41.149Z,101458.56
2023-05-03T18:26:10.881Z,101468.63
2023-05-03T18:28:39.227Z,101473.84
2023-05-03T18:31:07.678Z,101480.69
2023-05-03T18:33:36.090Z,101468.59
2023-05-03T18:36:09.051Z,101481.94
2023-05-03T18:38:38.132Z,101485.31
2023-05-03T18:41:14.197Z,101487.13
2023-05-03T18:43:55.524Z,101485.22
2023-05-03T18:46:23.822Z,101481.31
2023-05-03T18:48:52.388Z,101489.22
2023-05-03T18:51:22.050Z,101485.59
2023-05-03T18:53:50.702Z,101491.31
2023-05-03T18:56:19.027Z,101495.25
2023-05-03T18:58:50.020Z,101498.63
2023-05-03T19:01:18.377Z,101506.38
2023-05-03T19:03:47.054Z,101505.22
2023-05-03T19:06:15.376Z,101502.41
2023-05-03T19:08:47.113Z,101509.97
2023-05-03T19:11:16.294Z,101508.47
2023-05-03T19:13:46.442Z,101507.31
2023-05-03T19:16:15.733Z,101514.47
2023-05-03T19:18:45.477Z,101513.47
2023-05-03T19:21:17.151Z,101515.97
2023-05-03T19:23:46.799Z,101520.28
2023-05-03T19:26:15.118Z,101520.50
2023-05-03T19:28:44.056Z,101520.34
2023-05-03T19:31:12.572Z,101522.69
2023-05-03T19:33:40.947Z,101521.34
2023-05-03T19:36:14.858Z,101521.53
2023-05-03T19:38:43.426Z,101521.53
2023-05-03T19:41:14.356Z,101513.88
2023-05-03T19:43:42.949Z,101518.38
2023-05-03T19:46:11.146Z,101518.19
2023-05-03T19:48:39.834Z,101518.19
2023-05-03T19:51:14.227Z,101524.38
2023-05-03T19:53:42.771Z,101516.22
2023-05-03T19:56:13.117Z,101520.41
2023-05-03T19:58:43.771Z,101521.75
2023-05-03T20:01:12.089Z,101532.78
2023-05-03T20:03:41.137Z,101532.50
2023-05-03T20:06:10.268Z,101524.31
2023-05-03T20:08:41.826Z,101525.66
2023-05-03T20:11:16.823Z,101538.03
2023-05-03T20:13:46.625Z,101540.06
2023-05-03T20:16:15.180Z,101539.25
2023-05-03T20:18:43.497Z,101542.91
2023-05-03T20:21:12.354Z,101540.41
2023-05-03T20:23:40.909Z,101539.56
2023-05-03T20:26:09.051Z,101545.25
2023-05-03T20:28:37.349Z,101548.44
2023-05-03T20:31:06.893Z,101550.44
2023-05-03T20:33:35.014Z,101550.13
2023-05-03T20:36:03.601Z,101557.16
2023-05-03T20:38:32.240Z,101556.50
2023-05-03T20:41:01.878Z,101559.47
2023-05-03T20:43:30.125Z,101558.81
2023-05-03T20:45:58.980Z,101558.97
2023-05-03T20:48:28.669Z,101556.81
2023-05-03T20:50:58.811Z,101556.50
2023-05-03T20:53:27.798Z,101546.81
2023-05-03T20:56:00.935Z,101555.88
2023-05-03T20:58:29.088Z,101560.34
2023-05-03T21:00:58.005Z,101558.53
2023-05-03T21:03:26.755Z,101554.53
2023-05-03T21:05:56.835Z,101555.69
2023-05-03T21:08:28.283Z,101555.84
2023-05-03T21:10:56.711Z,101549.84
2023-05-03T21:13:24.918Z,101548.81
2023-05-03T21:15:53.309Z,101550.84
2023-05-03T21:18:42.657Z,101554.69
2023-05-03T21:21:12.220Z,101555.19
2023-05-03T21:23:40.390Z,101549.16
2023-05-03T21:26:08.602Z,101559.50
2023-05-03T21:28:36.772Z,101561.19
2023-05-03T21:31:05.685Z,101565.50
2023-05-03T21:33:43.658Z,101559.31
2023-05-03T21:36:14.923Z,101564.13
2023-05-03T21:38:43.109Z,101566.94
2023-05-03T21:41:11.334Z,101574.75
2023-05-03T21:43:39.778Z,101569.69
2023-05-03T21:46:08.640Z,101566.81
2023-05-03T21:48:37.342Z,101570.97
2023-05-03T21:51:05.943Z,101575.44
2023-05-03T21:53:35.727Z,101574.56
2023-05-03T21:56:04.015Z,101576.22
2023-05-03T21:58:32.249Z,101579.34
2023-05-03T22:01:00.345Z,101587.91
2023-05-03T22:03:28.731Z,101592.91
2023-05-03T22:05:56.928Z,101591.53
2023-05-03T22:08:25.028Z,101582.84
2023-05-03T22:10:56.253Z,101585.66
2023-05-03T22:13:24.340Z,101586.50
2023-05-03T22:15:52.533Z,101585.84
2023-05-03T22:18:20.709Z,101581.81
2023-05-03T22:20:48.863Z,101580.00
2023-05-03T22:23:18.880Z,101588.16
2023-05-03T22:25:47.151Z,101593.47
2023-05-03T22:28:16.815Z,101591.94
2023-05-03T22:30:45.183Z,101593.63
2023-05-03T22:33:13.487Z,101598.97
2023-05-03T22:35:41.759Z,101604.13
2023-05-03T22:38:09.985Z,101610.44
2023-05-03T22:40:41.139Z,101609.91
2023-05-03T22:43:09.350Z,101610.22
2023-05-03T22:45:39.523Z,101615.03
2023-05-03T22:48:08.234Z,101615.72
2023-05-03T22:50:42.388Z,101611.25
2023-05-03T22:53:10.655Z,101614.75
2023-05-03T22:55:39.443Z,101619.06
2023-05-03T22:58:07.593Z,101611.06
2023-05-03T23:00:35.859Z,101615.41
2023-05-03T23:03:05.653Z,101609.41
2023-05-03T23:05:43.368Z,101612.72
2023-05-03T23:08:11.540Z,101618.91
2023-05-03T23:10:40.151Z,101610.06
2023-05-03T23:13:09.123Z,101621.72
2023-05-03T23:15:38.067Z,101621.22
2023-05-03T23:18:08.644Z,101624.56
2023-05-03T23:20:42.715Z,101630.19
2023-05-03T23:23:13.868Z,101624.47
2023-05-03T23:25:42.019Z,101625.94
2023-05-03T23:28:10.581Z,101636.75
2023-05-03T23:30:43.822Z,101631.88
2023-05-03T23:33:14.900Z,101627.16
2023-05-03T23:35:43.742Z,101633.69
2023-05-03T23:38:13.637Z,101638.50
2023-05-03T23:40:41.933Z,101648.91
2023-05-03T23:43:12.470Z,101643.53
2023-05-03T23:45:40.827Z,101650.75
2023-05-03T23:48:09.103Z,101643.63
2023-05-03T23:50:41.299Z,101651.75
2023-05-03T23:53:09.499Z,101654.06
2023-05-03T23:55:37.783Z,101652.25
2023-05-03T23:58:06.022Z,101652.03
